createdAt,value
2016-12-11T00:00:55.701Z,0
2016-12-11T00:02:06.060Z,0
2016-12-11T00:03:15.792Z,0
2016-12-11T00:04:26.124Z,0
2016-12-11T00:05:36.155Z,0
2016-12-11T00:06:46.227Z,0
2016-12-11T00:07:56.563Z,0
2016-12-11T00:09:06.516Z,0
2016-12-11T00:10:16.540Z,0
2016-12-11T00:11:26.607Z,0
2016-12-11T00:12:36.635Z,0
2016-12-11T00:13:46.996Z,0
2016-12-11T00:14:56.748Z,0
2016-12-11T00:16:07.099Z,0
2016-12-11T00:17:17.127Z,0
2016-12-11T00:18:27.478Z,0
2016-12-11T00:19:37.535Z,0
2016-12-11T00:20:47.862Z,0
2016-12-11T00:21:58.228Z,0
2016-12-11T00:23:08.566Z,0
2016-12-11T00:24:18.898Z,0
2016-12-11T00:25:29.230Z,0
2016-12-11T00:26:39.557Z,0
2016-12-11T00:27:49.614Z,0
2016-12-11T00:28:59.955Z,0
2016-12-11T00:30:09.976Z,0
2016-12-11T00:31:20.326Z,0
2016-12-11T00:32:30.345Z,0
2016-12-11T00:33:40.687Z,0
2016-12-11T00:34:50.709Z,0
2016-12-11T00:36:02.495Z,0
2016-12-11T00:37:12.217Z,0
2016-12-11T00:38:22.234Z,0
2016-12-11T00:39:32.792Z,0
2016-12-11T00:40:43.134Z,0
2016-12-11T00:41:52.850Z,0
2016-12-11T00:43:02.874Z,0
2016-12-11T00:44:12.604Z,0
2016-12-11T00:45:22.628Z,0
2016-12-11T00:46:32.962Z,0
2016-12-11T00:47:43.044Z,0
2016-12-11T00:48:53.060Z,0
2016-12-11T00:50:03.421Z,0
2016-12-11T00:51:13.772Z,0
2016-12-11T00:52:23.802Z,0
2016-12-11T00:53:33.866Z,0
2016-12-11T00:54:43.920Z,0
2016-12-11T00:55:53.955Z,0
2016-12-11T00:57:03.992Z,0
2016-12-11T00:58:14.027Z,0
2016-12-11T00:59:24.379Z,0
2016-12-11T01:00:34.764Z,0
2016-12-11T01:01:44.472Z,0
2016-12-11T01:02:54.501Z,0
2016-12-11T01:04:04.882Z,0
2016-12-11T01:05:14.902Z,0
2016-12-11T01:06:24.628Z,0
2016-12-11T01:07:34.969Z,0
2016-12-11T01:08:45.002Z,0
2016-12-11T01:09:55.058Z,0
2016-12-11T01:11:05.108Z,0
2016-12-11T01:12:15.152Z,0
2016-12-11T01:13:25.482Z,0
2016-12-11T01:14:35.839Z,0
2016-12-11T01:15:46.174Z,0
2016-12-11T01:16:56.201Z,0
2016-12-11T01:18:06.239Z,0
2016-12-11T01:19:16.568Z,0
2016-12-11T01:20:25.983Z,0
2016-12-11T01:21:36.034Z,0
2016-12-11T01:22:46.060Z,0
2016-12-11T01:23:56.403Z,0
2016-12-11T01:25:06.114Z,0
2016-12-11T01:26:16.459Z,0
2016-12-11T01:27:26.498Z,0
2016-12-11T01:28:36.826Z,0
2016-12-11T01:29:47.154Z,0
2016-12-11T01:30:56.865Z,0
2016-12-11T01:32:06.580Z,0
2016-12-11T01:33:16.926Z,0
2016-12-11T01:34:27.250Z,0
2016-12-11T01:35:37.581Z,0
2016-12-11T01:36:47.903Z,0
2016-12-11T01:37:57.305Z,0
2016-12-11T01:39:07.018Z,0
2016-12-11T01:40:17.044Z,0
2016-12-11T01:41:27.381Z,0
2016-12-11T01:42:37.087Z,0
2016-12-11T01:43:47.419Z,0
2016-12-11T01:44:57.461Z,0
2016-12-11T01:46:07.798Z,0
2016-12-11T01:47:17.810Z,0
2016-12-11T01:48:27.827Z,0
2016-12-11T01:49:37.859Z,0
2016-12-11T01:50:48.204Z,0
2016-12-11T01:51:58.561Z,0
2016-12-11T01:53:08.932Z,0
2016-12-11T01:54:19.264Z,0
2016-12-11T01:55:29.292Z,0
2016-12-11T01:56:39.318Z,0
2016-12-11T01:57:49.321Z,0
2016-12-11T01:58:59.647Z,0
2016-12-11T02:00:09.349Z,0
2016-12-11T02:01:18.750Z,0
2016-12-11T02:02:29.082Z,0
2016-12-11T02:03:39.419Z,0
2016-12-11T02:04:49.436Z,0
2016-12-11T02:05:59.774Z,0
2016-12-11T02:07:09.784Z,0
2016-12-11T02:08:19.501Z,0
2016-12-11T02:09:29.208Z,0
2016-12-11T02:10:39.225Z,0
2016-12-11T02:11:48.931Z,0
2016-12-11T02:12:59.257Z,0
2016-12-11T02:14:09.625Z,0
2016-12-11T02:15:19.946Z,0
2016-12-11T02:16:29.653Z,0
2016-12-11T02:17:39.665Z,0
2016-12-11T02:18:49.672Z,0
2016-12-11T02:20:00.010Z,0
2016-12-11T02:21:09.760Z,0
2016-12-11T02:22:20.087Z,0
2016-12-11T02:23:30.100Z,0
2016-12-11T02:24:39.501Z,0
2016-12-11T02:25:49.833Z,0
2016-12-11T02:27:00.190Z,0
2016-12-11T02:28:09.896Z,0
2016-12-11T02:29:19.628Z,0
2016-12-11T02:30:29.335Z,0
2016-12-11T02:31:39.368Z,0
2016-12-11T02:32:49.688Z,0
2016-12-11T02:34:00.027Z,0
2016-12-11T02:35:10.346Z,0
2016-12-11T02:36:20.673Z,0
2016-12-11T02:37:31.012Z,0
2016-12-11T02:38:41.357Z,0
2016-12-11T02:39:51.687Z,0
2016-12-11T02:41:01.706Z,0
2016-12-11T02:42:12.052Z,0
2016-12-11T02:43:22.093Z,0
2016-12-11T02:44:32.421Z,0
2016-12-11T02:45:42.737Z,0
2016-12-11T02:46:52.759Z,0
2016-12-11T02:48:03.090Z,0
2016-12-11T02:49:13.448Z,0
2016-12-11T02:50:23.779Z,0
2016-12-11T02:51:34.095Z,0
2016-12-11T02:52:44.106Z,0
2016-12-11T02:53:54.124Z,0
2016-12-11T02:55:04.163Z,0
2016-12-11T02:56:14.511Z,0
2016-12-11T02:57:24.844Z,0
2016-12-11T02:58:35.170Z,0
2016-12-11T02:59:45.502Z,0
2016-12-11T03:00:55.218Z,0
2016-12-11T03:33:06.530Z,0
2016-12-11T03:34:16.836Z,0
2016-12-11T03:35:27.147Z,0
2016-12-11T03:36:37.464Z,0
2016-12-11T03:37:47.467Z,0
2016-12-11T03:38:57.806Z,0
2016-12-11T03:40:08.135Z,0
2016-12-11T03:41:17.849Z,0
2016-12-11T03:42:28.187Z,0
2016-12-11T03:43:38.515Z,0
2016-12-11T03:44:48.230Z,0
2016-12-11T03:45:57.954Z,0
2016-12-11T03:47:08.314Z,0
2016-12-11T03:48:18.641Z,0
2016-12-11T03:49:28.697Z,0
2016-12-11T03:50:38.404Z,0
2016-12-11T03:51:48.111Z,0
2016-12-11T03:52:58.133Z,0
2016-12-11T03:54:08.155Z,0
2016-12-11T03:55:18.485Z,0
2016-12-11T03:56:28.495Z,0
2016-12-11T03:57:38.814Z,0
2016-12-11T03:58:49.152Z,0
2016-12-11T03:59:59.470Z,0
2016-12-11T04:01:09.809Z,0
2016-12-11T04:02:19.532Z,0
2016-12-11T04:03:29.549Z,0
2016-12-11T04:04:39.580Z,0
2016-12-11T04:05:49.593Z,0
2016-12-11T04:06:59.930Z,0
2016-12-11T04:08:10.255Z,0
2016-12-11T04:09:19.955Z,0
2016-12-11T04:10:29.653Z,0
2016-12-11T04:11:39.349Z,0
2016-12-11T04:12:49.671Z,0
2016-12-11T04:14:00.002Z,0
2016-12-11T04:15:10.025Z,0
2016-12-11T04:16:20.359Z,0
2016-12-11T04:17:30.692Z,0
2016-12-11T04:18:41.015Z,0
2016-12-11T04:19:51.041Z,0
2016-12-11T04:21:01.374Z,0
2016-12-11T04:22:10.774Z,0
2016-12-11T04:23:21.091Z,0
2016-12-11T04:24:31.103Z,0
2016-12-11T04:25:40.509Z,0
2016-12-11T04:26:50.837Z,0
2016-12-11T04:28:00.863Z,0
2016-12-11T04:29:10.936Z,0
2016-12-11T04:30:21.286Z,0
2016-12-11T04:31:31.613Z,0
2016-12-11T04:32:41.635Z,0
2016-12-11T04:33:51.655Z,0
2016-12-11T04:35:01.664Z,0
2016-12-11T04:36:11.985Z,0
2016-12-11T04:37:21.692Z,0
2016-12-11T04:38:32.028Z,0
2016-12-11T04:39:42.051Z,0
2016-12-11T04:40:52.372Z,0
2016-12-11T04:42:02.709Z,0
2016-12-11T04:43:13.040Z,0
2016-12-11T04:44:22.752Z,0
2016-12-11T04:45:33.073Z,0
2016-12-11T04:46:42.780Z,0
2016-12-11T04:47:52.797Z,0
2016-12-11T04:49:02.811Z,0
2016-12-11T04:50:12.836Z,0
2016-12-11T04:51:22.853Z,0
2016-12-11T04:52:32.856Z,0
2016-12-11T04:53:42.883Z,0
2016-12-11T04:54:53.219Z,0
2016-12-11T04:56:03.555Z,0
2016-12-11T04:57:13.566Z,0
2016-12-11T04:58:23.588Z,0
2016-12-11T04:59:33.610Z,0
2016-12-11T05:00:43.943Z,0
2016-12-11T05:01:54.269Z,0
2016-12-11T05:03:04.294Z,0
2016-12-11T05:04:14.621Z,0
2016-12-11T05:05:24.947Z,0
2016-12-11T05:06:34.646Z,0
2016-12-11T05:07:44.664Z,0
2016-12-11T05:08:54.682Z,0
2016-12-11T05:10:04.709Z,0
2016-12-11T05:11:14.736Z,0
2016-12-11T05:12:24.447Z,0
2016-12-11T05:13:34.467Z,0
2016-12-11T05:14:44.181Z,0
2016-12-11T05:15:54.539Z,0
2016-12-11T05:17:04.860Z,0
2016-12-11T05:18:14.871Z,0
2016-12-11T05:19:24.928Z,0
2016-12-11T05:20:35.255Z,0
2016-12-11T05:21:45.571Z,0
2016-12-11T05:22:55.898Z,0
2016-12-11T05:24:06.231Z,0
2016-12-11T05:25:16.556Z,0
2016-12-11T05:26:26.895Z,0
2016-12-11T05:27:37.223Z,0
2016-12-11T05:28:47.248Z,0
2016-12-11T05:29:57.579Z,0
2016-12-11T05:31:07.919Z,0
2016-12-11T05:32:17.936Z,0
2016-12-11T05:33:27.956Z,0
2016-12-11T05:34:37.971Z,0
2016-12-11T05:35:48.304Z,0
2016-12-11T05:36:58.332Z,0
2016-12-11T05:38:08.655Z,0
2016-12-11T05:39:18.666Z,0
2016-12-11T05:40:29.012Z,0
2016-12-11T05:41:39.381Z,0
2016-12-11T05:42:49.397Z,0
2016-12-11T05:43:59.118Z,0
2016-12-11T05:45:09.455Z,0
2016-12-11T05:46:19.476Z,0
2016-12-11T05:47:29.177Z,0
2016-12-11T05:48:39.193Z,0
2016-12-11T05:49:49.219Z,0
2016-12-11T05:50:59.553Z,0
2016-12-11T05:52:09.883Z,0
2016-12-11T05:53:20.229Z,0
2016-12-11T05:54:29.931Z,0
2016-12-11T05:55:39.939Z,0
2016-12-11T05:56:49.951Z,0
2016-12-11T05:57:59.971Z,4
2016-12-11T05:59:10.299Z,4
2016-12-11T06:00:20.315Z,0
2016-12-11T06:01:30.638Z,0
2016-12-11T06:02:40.652Z,4
2016-12-11T06:03:50.669Z,4
2016-12-11T06:05:01.001Z,4
2016-12-11T06:06:10.707Z,4
2016-12-11T06:07:21.034Z,4
2016-12-11T06:08:31.365Z,4
2016-12-11T06:09:41.427Z,4
2016-12-11T06:10:51.445Z,8
2016-12-11T06:12:01.781Z,12
2016-12-11T06:13:11.808Z,12
2016-12-11T06:14:22.134Z,16
2016-12-11T06:15:32.178Z,20
2016-12-11T06:16:42.503Z,24
2016-12-11T06:17:52.845Z,24
2016-12-11T06:19:02.853Z,32
2016-12-11T06:20:13.190Z,36
2016-12-11T06:21:22.585Z,40
2016-12-11T06:22:32.647Z,48
2016-12-11T06:23:42.353Z,56
2016-12-11T06:24:52.389Z,64
2016-12-11T06:26:02.098Z,76
2016-12-11T06:27:12.440Z,88
2016-12-11T06:28:22.775Z,96
2016-12-11T06:29:33.111Z,108
2016-12-11T06:30:42.830Z,116
2016-12-11T06:31:52.841Z,128
2016-12-11T06:33:02.859Z,144
2016-12-11T06:34:12.875Z,160
2016-12-11T06:35:23.212Z,176
2016-12-11T06:36:33.535Z,196
2016-12-11T06:37:43.867Z,220
2016-12-11T06:38:53.889Z,236
2016-12-11T06:40:04.218Z,256
2016-12-11T06:41:14.231Z,276
2016-12-11T06:42:24.560Z,300
2016-12-11T06:43:34.582Z,324
2016-12-11T06:44:44.305Z,352
2016-12-11T06:45:54.634Z,388
2016-12-11T06:47:04.958Z,424
2016-12-11T06:48:14.984Z,460
2016-12-11T06:49:24.692Z,492
2016-12-11T06:50:34.715Z,516
2016-12-11T06:51:45.039Z,556
2016-12-11T06:52:55.056Z,596
2016-12-11T06:54:04.759Z,660
2016-12-11T06:55:14.779Z,716
2016-12-11T06:56:25.111Z,772
2016-12-11T06:57:35.132Z,832
2016-12-11T06:58:45.466Z,920
2016-12-11T06:59:55.485Z,1052
2016-12-11T07:01:05.839Z,1176
2016-12-11T07:02:15.548Z,1256
2016-12-11T07:03:25.256Z,1304
2016-12-11T07:04:35.273Z,1360
2016-12-11T07:05:45.594Z,1404
2016-12-11T07:06:55.620Z,1452
2016-12-11T07:08:05.638Z,1496
2016-12-11T07:09:15.667Z,1548
2016-12-11T07:10:26.001Z,1600
2016-12-11T07:11:36.337Z,1652
2016-12-11T07:12:46.679Z,1700
2016-12-11T07:13:56.387Z,1764
2016-12-11T07:15:06.630Z,1820
2016-12-11T07:16:15.727Z,1864
2016-12-11T07:17:26.056Z,1900
2016-12-11T07:18:36.074Z,1956
2016-12-11T07:19:46.412Z,2012
2016-12-11T07:20:56.112Z,2092
2016-12-11T07:22:05.823Z,2172
2016-12-11T07:23:16.171Z,2232
2016-12-11T07:24:26.513Z,2276
2016-12-11T07:25:36.543Z,2340
2016-12-11T07:26:46.560Z,2392
2016-12-11T07:27:56.897Z,2420
2016-12-11T07:29:06.922Z,2444
2016-12-11T07:30:16.951Z,2272
2016-12-11T07:31:26.973Z,1880
2016-12-11T07:32:37.004Z,2256
2016-12-11T07:33:47.021Z,2512
2016-12-11T07:34:56.748Z,2532
2016-12-11T07:36:07.085Z,2508
2016-12-11T07:37:16.786Z,2812
2016-12-11T07:38:26.802Z,2476
2016-12-11T07:39:37.140Z,2768
2016-12-11T07:40:47.477Z,3024
2016-12-11T07:41:57.511Z,3088
2016-12-11T07:43:07.848Z,3124
2016-12-11T07:44:17.560Z,3188
2016-12-11T07:45:27.599Z,3244
2016-12-11T07:46:37.359Z,3308
2016-12-11T07:47:47.375Z,3364
2016-12-11T07:48:57.746Z,3428
2016-12-11T07:50:07.764Z,3484
2016-12-11T07:51:17.780Z,3540
2016-12-11T07:52:28.112Z,3592
2016-12-11T07:53:38.451Z,3644
2016-12-11T07:54:48.464Z,3708
2016-12-11T07:55:58.802Z,3752
2016-12-11T07:57:09.179Z,3820
2016-12-11T07:58:19.200Z,3892
2016-12-11T07:59:28.920Z,3960
2016-12-11T08:00:39.268Z,3952
2016-12-11T08:01:49.296Z,3896
2016-12-11T08:02:59.313Z,3972
2016-12-11T08:04:09.670Z,3956
2016-12-11T08:05:20.013Z,3748
2016-12-11T08:06:30.387Z,3932
2016-12-11T08:07:40.718Z,3952
2016-12-11T08:08:50.769Z,3724
2016-12-11T08:10:00.818Z,3744
2016-12-11T08:11:11.154Z,4412
2016-12-11T08:12:21.190Z,4504
2016-12-11T08:13:31.538Z,4208
2016-12-11T08:14:41.876Z,2948
2016-12-11T08:15:52.222Z,2940
2016-12-11T08:17:02.571Z,3160
2016-12-11T08:18:12.634Z,3240
2016-12-11T08:19:22.992Z,3148
2016-12-11T08:20:33.021Z,3304
2016-12-11T08:21:43.344Z,4676
2016-12-11T08:22:53.360Z,3320
2016-12-11T08:24:03.387Z,4156
2016-12-11T08:25:13.395Z,4044
2016-12-11T08:26:23.741Z,2928
2016-12-11T08:27:33.755Z,4404
2016-12-11T08:28:43.773Z,4116
2016-12-11T08:29:54.111Z,4612
2016-12-11T08:31:04.457Z,3540
2016-12-11T08:32:14.492Z,3708
2016-12-11T08:33:24.830Z,5288
2016-12-11T08:34:35.162Z,5352
2016-12-11T08:35:45.184Z,5396
2016-12-11T08:36:55.213Z,5444
2016-12-11T08:38:05.232Z,5440
2016-12-11T08:39:15.569Z,5456
2016-12-11T08:40:25.287Z,4664
2016-12-11T08:41:35.029Z,3284
2016-12-11T08:42:45.377Z,4032
2016-12-11T08:43:55.712Z,3776
2016-12-11T08:45:05.728Z,3844
2016-12-11T08:46:15.750Z,4208
2016-12-11T08:47:25.152Z,3944
2016-12-11T08:48:35.503Z,4208
2016-12-11T08:49:45.528Z,4344
2016-12-11T08:50:55.873Z,3492
2016-12-11T08:52:05.898Z,3344
2016-12-11T08:53:16.250Z,3392
2016-12-11T08:54:26.587Z,3440
2016-12-11T08:55:36.933Z,4028
2016-12-11T08:56:47.270Z,4748
2016-12-11T08:57:57.306Z,4528
2016-12-11T08:59:07.354Z,5104
2016-12-11T09:00:17.361Z,3716
2016-12-11T09:01:27.697Z,4732
2016-12-11T09:02:37.410Z,3784
2016-12-11T09:03:47.755Z,4148
2016-12-11T09:04:57.772Z,4416
2016-12-11T09:06:08.124Z,3624
2016-12-11T09:07:18.456Z,3228
2016-12-11T09:08:28.787Z,3248
2016-12-11T09:09:38.833Z,3240
2016-12-11T09:10:49.180Z,3256
2016-12-11T09:11:59.237Z,3752
2016-12-11T09:13:09.572Z,3364
2016-12-11T09:14:19.286Z,3376
2016-12-11T09:15:29.019Z,3220
2016-12-11T09:16:38.725Z,3288
2016-12-11T09:17:48.140Z,3252
2016-12-11T09:18:58.502Z,3248
2016-12-11T09:20:08.835Z,3236
2016-12-11T09:21:18.851Z,3272
2016-12-11T09:22:28.887Z,3336
2016-12-11T09:23:38.590Z,3332
2016-12-11T09:24:48.935Z,3352
2016-12-11T09:25:58.655Z,3276
2016-12-11T09:27:08.989Z,3188
2016-12-11T09:28:19.022Z,3148
2016-12-11T09:29:29.064Z,3116
2016-12-11T09:30:39.386Z,3156
2016-12-11T09:31:49.733Z,3084
2016-12-11T09:32:59.778Z,3156
2016-12-11T09:34:10.107Z,3172
2016-12-11T09:35:20.487Z,3128
2016-12-11T09:36:30.842Z,3120
2016-12-11T09:37:40.880Z,3052
2016-12-11T09:38:50.603Z,3048
2016-12-11T09:40:00.952Z,3000
2016-12-11T09:41:10.697Z,2988
2016-12-11T09:42:20.739Z,2984
2016-12-11T09:43:31.097Z,2976
2016-12-11T09:44:41.458Z,2980
2016-12-11T09:45:51.809Z,2980
2016-12-11T09:47:02.186Z,2992
2016-12-11T09:48:12.202Z,3008
2016-12-11T09:49:21.927Z,3020
2016-12-11T09:50:32.289Z,3016
2016-12-11T09:51:42.334Z,3000
2016-12-11T09:52:52.041Z,2980
2016-12-11T09:54:02.085Z,2964
2016-12-11T09:55:12.133Z,2964
2016-12-11T09:56:22.474Z,2976
2016-12-11T09:57:32.834Z,3000
2016-12-11T09:58:43.163Z,3028
2016-12-11T09:59:53.520Z,3068
2016-12-11T10:01:03.564Z,3100
2016-12-11T10:02:13.616Z,3124
2016-12-11T10:03:23.647Z,3136
2016-12-11T10:04:33.688Z,3140
2016-12-11T10:05:44.042Z,3148
2016-12-11T10:06:54.404Z,3136
2016-12-11T10:08:04.447Z,3120
2016-12-11T10:09:14.800Z,3100
2016-12-11T10:10:25.159Z,3096
2016-12-11T10:11:35.504Z,3108
2016-12-11T10:12:45.544Z,3128
2016-12-11T10:13:54.963Z,3156
2016-12-11T10:15:04.670Z,3164
2016-12-11T10:16:14.686Z,3124
2016-12-11T10:17:24.707Z,3076
2016-12-11T10:18:34.771Z,3036
2016-12-11T10:19:44.501Z,2948
2016-12-11T10:20:54.838Z,2876
2016-12-11T10:22:04.574Z,2848
2016-12-11T10:23:14.607Z,2812
2016-12-11T10:24:24.641Z,2824
2016-12-11T10:25:34.995Z,2844
2016-12-11T10:26:45.356Z,2848
2016-12-11T10:27:55.683Z,2828
2016-12-11T10:29:05.730Z,2796
2016-12-11T10:30:16.102Z,2776
2016-12-11T10:31:26.139Z,2796
2016-12-11T10:32:36.177Z,2824
2016-12-11T10:33:46.535Z,2844
2016-12-11T10:34:56.888Z,2876
2016-12-11T10:36:06.634Z,2964
2016-12-11T10:37:16.674Z,3068
2016-12-11T10:38:27.044Z,3136
2016-12-11T10:39:37.085Z,3152
2016-12-11T10:40:46.821Z,3128
2016-12-11T10:41:56.879Z,3032
2016-12-11T10:43:07.235Z,2940
2016-12-11T10:44:17.287Z,2876
2016-12-11T10:45:27.017Z,2928
2016-12-11T10:46:37.371Z,2952
2016-12-11T10:47:47.743Z,2900
2016-12-11T10:48:57.796Z,2780
2016-12-11T10:50:08.136Z,2696
2016-12-11T10:51:18.486Z,2604
2016-12-11T10:52:28.519Z,2592
2016-12-11T10:53:38.863Z,2612
2016-12-11T10:54:48.891Z,2672
2016-12-11T10:55:59.251Z,2684
2016-12-11T10:57:09.284Z,2700
2016-12-11T10:58:19.347Z,2680
2016-12-11T10:59:29.698Z,2660
2016-12-11T11:00:39.731Z,2620
2016-12-11T11:01:49.752Z,2584
2016-12-11T11:03:00.105Z,2576
2016-12-11T11:04:09.833Z,2560
2016-12-11T11:05:19.557Z,2540
2016-12-11T11:06:29.615Z,2520
2016-12-11T11:07:39.684Z,2520
2016-12-11T11:08:50.048Z,2512
2016-12-11T11:10:00.403Z,2512
2016-12-11T11:11:10.433Z,2516
2016-12-11T11:12:20.170Z,2512
2016-12-11T11:13:29.569Z,2504
2016-12-11T11:14:39.912Z,2504
2016-12-11T11:15:49.967Z,2492
2016-12-11T11:17:00.036Z,2468
2016-12-11T11:18:10.367Z,2432
2016-12-11T11:19:20.754Z,2376
2016-12-11T11:20:30.787Z,2324
2016-12-11T11:21:41.122Z,2304
2016-12-11T11:22:50.856Z,2280
2016-12-11T11:24:00.886Z,2252
2016-12-11T11:25:10.643Z,2240
2016-12-11T11:26:20.677Z,2216
2016-12-11T11:27:31.007Z,2192
2016-12-11T11:28:41.364Z,2168
2016-12-11T11:29:51.393Z,2144
2016-12-11T11:31:01.424Z,2120
2016-12-11T11:32:11.789Z,2104
2016-12-11T11:33:21.811Z,2096
2016-12-11T11:34:32.169Z,2088
2016-12-11T11:35:41.896Z,2068
2016-12-11T11:36:51.925Z,2032
2016-12-11T11:38:02.278Z,1992
2016-12-11T11:39:12.294Z,1940
2016-12-11T11:40:22.344Z,1840
2016-12-11T11:41:32.378Z,1800
2016-12-11T11:42:42.423Z,1840
2016-12-11T11:43:52.176Z,1804
2016-12-11T11:45:02.543Z,1840
2016-12-11T11:46:12.299Z,1848
2016-12-11T11:47:22.418Z,1852
2016-12-11T11:48:32.529Z,1912
2016-12-11T11:49:42.907Z,1984
2016-12-11T11:50:52.955Z,2072
2016-12-11T11:52:03.326Z,2120
2016-12-11T11:53:13.707Z,2164
2016-12-11T11:54:24.038Z,2208
2016-12-11T11:55:34.083Z,2244
2016-12-11T11:56:44.128Z,2272
2016-12-11T11:57:54.469Z,2304
2016-12-11T11:59:04.509Z,2356
2016-12-11T12:00:14.289Z,2408
2016-12-11T12:01:24.636Z,2400
2016-12-11T12:02:34.967Z,2388
2016-12-11T12:03:44.712Z,2372
2016-12-11T12:04:54.791Z,2440
2016-12-11T12:06:05.179Z,2384
2016-12-11T12:07:15.536Z,2360
2016-12-11T12:08:25.259Z,2188
2016-12-11T12:09:35.651Z,2000
2016-12-11T12:10:45.705Z,1872
2016-12-11T12:11:55.743Z,1660
2016-12-11T12:13:06.114Z,1532
2016-12-11T12:14:16.490Z,1488
2016-12-11T12:15:27.327Z,1528
2016-12-11T12:16:37.889Z,1568
2016-12-11T12:17:47.927Z,1548
2016-12-11T12:18:58.329Z,1532
2016-12-11T12:20:07.769Z,1560
2016-12-11T12:21:17.811Z,1528
2016-12-11T12:22:27.630Z,1508
2016-12-11T12:23:37.664Z,1472
2016-12-11T12:24:47.735Z,1412
2016-12-11T12:25:58.110Z,1324
2016-12-11T12:27:08.508Z,1204
2016-12-11T12:28:18.596Z,1104
2016-12-11T12:29:28.958Z,1040
2016-12-11T12:30:39.426Z,1040
2016-12-11T12:31:49.471Z,1040
2016-12-11T12:32:59.560Z,1044
2016-12-11T12:34:09.396Z,1004
2016-12-11T12:35:19.858Z,880
2016-12-11T12:36:30.233Z,756
2016-12-11T12:37:40.591Z,684
2016-12-11T12:38:50.960Z,576
2016-12-11T12:40:01.135Z,512
2016-12-11T12:41:11.601Z,476
2016-12-11T12:42:21.727Z,500
2016-12-11T12:43:32.060Z,564
2016-12-11T12:44:41.161Z,580
2016-12-11T12:45:51.525Z,544
2016-12-11T12:47:01.972Z,560
2016-12-11T12:48:12.194Z,580
2016-12-11T12:49:22.549Z,608
2016-12-11T12:50:32.583Z,620
2016-12-11T12:51:43.016Z,676
2016-12-11T12:52:53.406Z,692
2016-12-11T12:54:03.821Z,684
2016-12-11T12:55:13.238Z,668
2016-12-11T12:56:23.580Z,644
2016-12-11T12:57:33.624Z,592
2016-12-11T12:58:43.980Z,576
2016-12-11T12:59:54.345Z,604
2016-12-11T13:01:04.354Z,604
2016-12-11T13:02:14.729Z,584
2016-12-11T13:03:24.486Z,568
2016-12-11T13:04:34.878Z,576
2016-12-11T13:05:45.212Z,568
2016-12-11T13:06:55.585Z,532
2016-12-11T13:08:05.644Z,496
2016-12-11T13:09:15.687Z,504
2016-12-11T13:10:26.036Z,512
2016-12-11T13:11:36.095Z,516
2016-12-11T13:12:46.147Z,528
2016-12-11T13:13:56.186Z,604
2016-12-11T13:15:06.545Z,672
2016-12-11T13:16:16.926Z,692
2016-12-11T13:17:26.971Z,696
2016-12-11T13:18:36.986Z,648
2016-12-11T13:19:47.359Z,652
2016-12-11T13:20:57.398Z,648
2016-12-11T13:22:07.765Z,608
2016-12-11T13:23:18.125Z,600
2016-12-11T13:24:28.510Z,596
2016-12-11T13:25:38.870Z,620
2016-12-11T13:26:48.904Z,700
2016-12-11T13:27:59.282Z,840
2016-12-11T13:29:09.007Z,1012
2016-12-11T13:30:19.046Z,1028
2016-12-11T13:31:28.797Z,1064
2016-12-11T13:32:39.189Z,1148
2016-12-11T13:33:49.218Z,1248
2016-12-11T13:34:59.585Z,1292
2016-12-11T13:36:09.922Z,1180
2016-12-11T13:37:19.662Z,1200
2016-12-11T13:38:30.031Z,1184
2016-12-11T13:39:40.381Z,1176
2016-12-11T13:40:50.731Z,1028
2016-12-11T13:41:59.855Z,940
2016-12-11T13:43:09.639Z,984
2016-12-11T13:44:19.666Z,988
2016-12-11T13:45:29.413Z,1052
2016-12-11T13:46:39.764Z,1244
2016-12-11T13:47:49.808Z,1172
2016-12-11T13:48:59.853Z,1168
2016-12-11T13:50:10.209Z,1076
2016-12-11T13:51:20.292Z,988
2016-12-11T13:52:30.036Z,884
2016-12-11T13:53:40.066Z,788
2016-12-11T13:54:50.450Z,732
2016-12-11T13:56:00.486Z,716
2016-12-11T13:57:10.208Z,720
2016-12-11T13:58:20.255Z,700
2016-12-11T13:59:30.309Z,672
2016-12-11T14:00:40.705Z,704
2016-12-11T14:01:50.744Z,716
2016-12-11T14:03:00.482Z,652
2016-12-11T14:04:10.899Z,600
2016-12-11T14:05:20.976Z,572
2016-12-11T14:06:31.011Z,544
2016-12-11T14:07:41.050Z,588
2016-12-11T14:08:51.125Z,684
2016-12-11T14:10:01.511Z,724
2016-12-11T14:11:12.945Z,740
2016-12-11T14:12:26.604Z,784
2016-12-11T14:13:39.649Z,816
2016-12-11T14:14:52.630Z,820
2016-12-11T14:16:06.288Z,812
2016-12-11T14:17:19.490Z,776
2016-12-11T14:18:34.095Z,756
2016-12-11T14:19:45.656Z,712
2016-12-11T14:20:55.748Z,656
2016-12-11T14:22:06.163Z,608
2016-12-11T14:23:15.889Z,556
2016-12-11T14:24:26.252Z,492
2016-12-11T14:25:36.292Z,436
2016-12-11T14:26:46.657Z,400
2016-12-11T14:27:57.015Z,360
2016-12-11T14:29:07.055Z,360
2016-12-11T14:30:17.092Z,336
2016-12-11T14:31:27.069Z,324
2016-12-11T14:32:37.113Z,308
2016-12-11T14:33:46.845Z,288
2016-12-11T14:34:57.221Z,272
2016-12-11T14:36:06.618Z,256
2016-12-11T14:37:17.020Z,232
2016-12-11T14:38:27.377Z,216
2016-12-11T14:39:37.724Z,216
2016-12-11T14:40:48.094Z,204
2016-12-11T14:41:58.152Z,180
2016-12-11T14:43:08.514Z,152
2016-12-11T14:44:18.540Z,124
2016-12-11T14:45:28.895Z,104
2016-12-11T14:46:38.619Z,84
2016-12-11T14:47:49.000Z,80
2016-12-11T14:48:59.041Z,80
2016-12-11T14:50:09.395Z,72
2016-12-11T14:51:19.760Z,60
2016-12-11T14:53:16.293Z,60
2016-12-11T14:54:26.016Z,56
2016-12-11T14:55:36.389Z,52
2016-12-11T14:56:46.725Z,44
2016-12-11T14:57:56.748Z,44
2016-12-11T14:59:07.076Z,48
2016-12-11T15:00:16.810Z,44
2016-12-11T15:01:26.532Z,40
2016-12-11T15:02:36.898Z,36
2016-12-11T15:03:46.880Z,32
2016-12-11T15:04:57.220Z,24
2016-12-11T15:06:07.298Z,16
2016-12-11T15:07:17.665Z,16
2016-12-11T15:08:27.676Z,16
2016-12-11T15:09:38.017Z,16
2016-12-11T15:10:48.365Z,12
2016-12-11T15:11:58.404Z,12
2016-12-11T15:13:08.752Z,12
2016-12-11T15:14:18.814Z,12
2016-12-11T15:15:29.170Z,8
2016-12-11T15:16:39.533Z,8
2016-12-11T15:17:49.923Z,4
2016-12-11T15:19:00.278Z,4
2016-12-11T15:20:10.359Z,8
2016-12-11T15:21:20.630Z,8
2016-12-11T15:22:30.967Z,4
2016-12-11T15:23:41.352Z,4
2016-12-11T15:24:51.393Z,8
2016-12-11T15:26:01.756Z,4
2016-12-11T15:27:11.768Z,4
2016-12-11T15:28:22.145Z,4
2016-12-11T15:29:32.509Z,4
2016-12-11T15:30:42.885Z,0
2016-12-11T15:31:53.240Z,4
2016-12-11T15:33:03.633Z,4
2016-12-11T15:34:13.991Z,4
2016-12-11T15:35:24.335Z,4
2016-12-11T15:36:34.359Z,0
2016-12-11T15:37:44.416Z,0
2016-12-11T15:38:54.773Z,0
2016-12-11T15:40:04.833Z,0
2016-12-11T15:41:15.193Z,0
2016-12-11T15:42:25.552Z,0
2016-12-11T15:43:35.910Z,0
2016-12-11T15:44:45.941Z,0
2016-12-11T15:45:55.971Z,0
2016-12-11T15:47:06.030Z,0
2016-12-11T15:48:16.066Z,0
2016-12-11T15:49:26.409Z,0
2016-12-11T15:50:36.762Z,0
2016-12-11T15:51:47.160Z,0
2016-12-11T15:52:57.523Z,0
2016-12-11T15:54:07.570Z,0
2016-12-11T15:55:17.597Z,0
2016-12-11T15:56:27.628Z,0
2016-12-11T15:57:37.976Z,0
2016-12-11T15:58:48.317Z,0
2016-12-11T15:59:58.693Z,0
2016-12-11T16:01:09.056Z,0
2016-12-11T16:02:19.411Z,0
2016-12-11T16:03:29.514Z,0
2016-12-11T16:04:39.581Z,0
2016-12-11T16:05:49.626Z,0
2016-12-11T16:06:59.672Z,0
2016-12-11T16:08:09.395Z,0
2016-12-11T16:09:18.814Z,0
2016-12-11T16:10:29.185Z,0
2016-12-11T16:11:38.949Z,0
2016-12-11T16:12:48.675Z,0
2016-12-11T16:13:58.709Z,0
2016-12-11T16:15:08.775Z,0
2016-12-11T16:16:19.142Z,0
2016-12-11T16:17:29.499Z,0
2016-12-11T16:18:39.844Z,0
2016-12-11T16:19:50.217Z,0
2016-12-11T16:21:00.585Z,0
2016-12-11T16:22:10.645Z,0
2016-12-11T16:23:21.013Z,0
2016-12-11T16:24:30.740Z,0
2016-12-11T16:25:41.090Z,0
2016-12-11T16:26:50.823Z,0
2016-12-11T16:28:00.249Z,0
2016-12-11T16:29:10.297Z,0
2016-12-11T16:30:20.033Z,0
2016-12-11T16:31:30.404Z,0
2016-12-11T16:32:40.736Z,0
2016-12-11T16:33:50.496Z,0
2016-12-11T16:35:00.850Z,0
2016-12-11T16:36:10.887Z,0
2016-12-11T16:37:21.213Z,0
2016-12-11T16:38:31.285Z,0
2016-12-11T16:39:41.651Z,0
2016-12-11T16:40:51.674Z,0
2016-12-11T16:42:02.018Z,0
2016-12-11T16:43:12.059Z,0
2016-12-11T16:44:22.424Z,0
2016-12-11T16:45:32.462Z,0
2016-12-11T16:46:42.513Z,0
2016-12-11T16:47:52.835Z,0
2016-12-11T16:49:02.892Z,0
2016-12-11T16:50:13.253Z,0
2016-12-11T16:51:23.613Z,0
2016-12-11T16:52:33.650Z,0
2016-12-11T16:53:43.707Z,0
2016-12-11T16:54:54.066Z,0
2016-12-11T16:56:04.456Z,0
2016-12-11T16:57:14.813Z,0
2016-12-11T16:58:24.563Z,0